KTRI/TRI METAR and TAF weather

Enter ICAO airport designator
Station Type Date Time Source
KTRI METAR 2020/08/05 15:53 UTC NOAA

KTRI 051553Z 00000KT 10SM SCT007 SCT120 26/20 A3011 RMK AO2 SLP172 T02560200 $


Station Type Date Time Source
KTRI Decoded METAR 2020/08/05 15:53 UTC NOAA

TRI-CITY REGIONAL AIRPORT, TN, United States (KTRI) 36-28N 082-24W 474M
Aug 05, 2020 - 11:53 AM EDT / 2020.08.05 1553 UTC
Wind: Calm:0
Visibility: 10 mile(s):0
Sky conditions: partly cloudy
Temperature: 78.1 F (25.6 C)
Dew Point: 68.0 F (20.0 C)
Relative Humidity: 71%
Pressure (altimeter): 30.11 in. Hg (1019 hPa)
ob: KTRI 051553Z 00000KT 10SM SCT007 SCT120 26/20 A3011 RMK AO2 SLP172 T02560200
cycle: 16

Station Type Date Time Source
KTRI TAF 2020/08/05 15:34 UTC NOAA

TAF
AMD KTRI 051432Z 0515/0612 00000KT 2SM BR OVC003
FM051530 VRB03KT P6SM FEW006 SCT120
FM051900 VRB03KT P6SM SHRA VCTS BKN070CB
FM060100 00000KT P6SM SCT070
FM061000 00000KT 1/4SM FG SCT060

Example: see airport list